createdAt,value
2022-12-20T00:03:20.543Z,1.35
2022-12-20T00:08:23.579Z,1.36
2022-12-20T00:13:27.867Z,1.42
2022-12-20T00:18:30.808Z,1.52
2022-12-20T00:23:34.156Z,1.45
2022-12-20T00:28:40.015Z,1.35
2022-12-20T00:33:46.995Z,1.54
2022-12-20T00:38:52.101Z,1.38
2022-12-20T00:43:56.537Z,1.32
2022-12-20T00:48:59.488Z,1.05
2022-12-20T00:54:02.430Z,0.94
2022-12-20T00:59:06.723Z,1.18
2022-12-20T01:04:09.646Z,1.13
2022-12-20T01:09:13.736Z,1.26
2022-12-20T01:14:18.315Z,0.97
2022-12-20T01:19:21.474Z,0.93
2022-12-20T01:24:24.410Z,1.19
2022-12-20T01:29:28.679Z,1.18
2022-12-20T01:34:31.626Z,1.15
2022-12-20T01:39:34.646Z,1.27
2022-12-20T01:45:08.891Z,1.29
2022-12-20T01:50:12.433Z,1.24
2022-12-20T01:55:19.842Z,1.19
2022-12-20T02:00:24.519Z,1.06
2022-12-20T02:05:27.961Z,1.07
2022-12-20T02:10:42.961Z,0.55
2022-12-20T02:15:55.175Z,0.92
2022-12-20T02:21:20.844Z,1.00
2022-12-20T02:27:05.042Z,0.97
2022-12-20T02:32:16.253Z,1.11
2022-12-20T02:37:19.609Z,1.04
2022-12-20T02:42:24.968Z,0.86
2022-12-20T02:47:34.687Z,0.99
2022-12-20T02:52:42.377Z,1.09
2022-12-20T02:57:59.738Z,1.22
2022-12-20T03:03:24.442Z,1.27
2022-12-20T03:08:28.435Z,1.24
2022-12-20T03:13:31.558Z,1.27
2022-12-20T03:18:46.074Z,1.18
2022-12-20T03:23:49.417Z,1.13
2022-12-20T03:28:52.351Z,1.19
2022-12-20T03:33:58.610Z,1.44
2022-12-20T03:39:02.286Z,1.13
2022-12-20T03:44:09.281Z,1.19
2022-12-20T03:49:14.067Z,1.38
2022-12-20T03:54:22.629Z,1.53
2022-12-20T03:59:48.016Z,1.46
2022-12-20T04:04:54.215Z,1.46
2022-12-20T04:09:58.521Z,1.47
2022-12-20T04:15:01.715Z,1.50
2022-12-20T04:20:19.847Z,1.50
2022-12-20T04:25:30.690Z,1.50
2022-12-20T04:30:33.800Z,1.26
2022-12-20T04:35:38.663Z,1.18
2022-12-20T04:40:41.887Z,1.32
2022-12-20T04:45:45.201Z,1.31
2022-12-20T04:50:51.517Z,1.44
2022-12-20T04:55:54.617Z,1.57
2022-12-20T05:00:58.549Z,1.59
2022-12-20T05:06:08.101Z,1.63
2022-12-20T05:11:12.979Z,1.62
2022-12-20T05:16:16.591Z,1.90
2022-12-20T05:21:43.522Z,1.97
2022-12-20T05:26:47.237Z,1.80
2022-12-20T05:31:51.994Z,1.82
2022-12-20T05:36:56.797Z,1.85
2022-12-20T05:42:05.979Z,1.85
2022-12-20T05:47:09.015Z,1.80
2022-12-20T05:52:14.779Z,1.84
2022-12-20T05:57:18.808Z,1.79
2022-12-20T06:02:23.095Z,1.82
2022-12-20T06:07:33.089Z,1.81
2022-12-20T06:12:36.688Z,1.67
2022-12-20T06:17:40.116Z,1.40
2022-12-20T06:22:44.424Z,1.60
2022-12-20T06:27:50.339Z,1.67
2022-12-20T06:32:54.331Z,1.77
2022-12-20T06:37:58.784Z,1.78
2022-12-20T06:43:03.040Z,1.84
2022-12-20T06:48:06.562Z,1.90
2022-12-20T06:53:12.529Z,1.86
2022-12-20T06:58:16.386Z,1.77
2022-12-20T07:03:21.438Z,1.80
2022-12-20T07:08:26.720Z,1.84
2022-12-20T07:13:29.617Z,1.73
2022-12-20T07:18:32.806Z,1.80
2022-12-20T07:23:37.112Z,1.78
2022-12-20T07:28:40.138Z,1.88
2022-12-20T07:33:43.037Z,2.05
2022-12-20T07:38:49.077Z,2.16
2022-12-20T07:43:52.768Z,2.26
2022-12-20T07:48:56.030Z,2.31
2022-12-20T07:54:05.120Z,2.00
2022-12-20T07:59:08.877Z,2.51
2022-12-20T08:04:15.560Z,2.76
2022-12-20T08:09:23.674Z,2.65
2022-12-20T08:14:26.672Z,2.77
2022-12-20T08:19:32.483Z,2.67
2022-12-20T08:24:37.342Z,2.70
2022-12-20T08:29:40.246Z,2.73
2022-12-20T08:34:43.432Z,2.72
2022-12-20T08:39:47.754Z,2.58
2022-12-20T08:44:50.756Z,2.50
2022-12-20T08:49:53.729Z,2.45
2022-12-20T08:54:58.528Z,2.39
2022-12-20T09:00:03.011Z,2.41
2022-12-20T09:05:06.407Z,2.38
2022-12-20T09:10:13.154Z,2.49
2022-12-20T09:15:16.210Z,2.72
2022-12-20T09:20:19.250Z,2.96
2022-12-20T09:25:23.655Z,2.96
2022-12-20T09:30:26.660Z,3.04
2022-12-20T09:35:29.636Z,3.35
2022-12-20T09:40:37.566Z,3.42
2022-12-20T09:45:40.824Z,3.38
2022-12-20T09:50:51.783Z,3.22
2022-12-20T09:56:02.064Z,3.13
2022-12-20T10:01:24.418Z,3.15
2022-12-20T10:06:43.520Z,3.30
2022-12-20T10:12:02.677Z,3.09
2022-12-20T10:17:11.123Z,3.05
2022-12-20T10:22:20.812Z,2.62
2022-12-20T10:27:25.128Z,2.47
2022-12-20T10:32:29.184Z,2.59
2022-12-20T10:37:32.250Z,2.70
2022-12-20T10:42:40.815Z,2.60
2022-12-20T10:47:47.077Z,2.55
2022-12-20T10:53:05.899Z,2.58
2022-12-20T10:58:16.957Z,2.60
2022-12-20T11:03:22.619Z,2.74
2022-12-20T11:08:51.264Z,2.63
2022-12-20T11:13:54.144Z,2.61
2022-12-20T11:19:14.895Z,2.74
2022-12-20T11:24:31.141Z,2.93
2022-12-20T11:29:49.300Z,2.82
2022-12-20T11:35:04.364Z,3.00
2022-12-20T11:40:22.907Z,2.92
2022-12-20T11:45:32.555Z,3.05
2022-12-20T11:50:49.092Z,2.88
2022-12-20T11:55:55.618Z,2.96
2022-12-20T12:01:05.316Z,3.29
2022-12-20T12:06:12.982Z,3.12
2022-12-20T12:11:56.178Z,3.14
2022-12-20T12:16:52.623Z,3.19
2022-12-20T12:22:02.718Z,3.11
2022-12-20T12:27:09.778Z,3.05
2022-12-20T12:32:24.329Z,2.85
2022-12-20T12:38:05.441Z,2.84
2022-12-20T12:43:39.188Z,2.89
2022-12-20T12:48:47.009Z,2.82
2022-12-20T12:53:52.491Z,2.71
2022-12-20T12:59:20.135Z,2.65
2022-12-20T13:04:30.142Z,2.59
2022-12-20T13:09:43.696Z,2.62
2022-12-20T13:14:51.180Z,2.72
2022-12-20T13:19:57.987Z,2.71
2022-12-20T13:25:03.825Z,2.74
2022-12-20T13:30:30.581Z,2.82
2022-12-20T13:35:48.211Z,2.89
2022-12-20T13:40:57.625Z,2.89
2022-12-20T13:46:13.282Z,2.94
2022-12-20T13:51:19.904Z,2.95
2022-12-20T13:56:35.528Z,2.99
2022-12-20T14:01:38.656Z,2.90
2022-12-20T14:06:43.060Z,2.97
2022-12-20T14:11:48.434Z,2.86
2022-12-20T14:16:51.523Z,2.72
2022-12-20T14:21:55.942Z,2.79
2022-12-20T14:26:59.907Z,2.72
2022-12-20T14:32:02.824Z,2.68
2022-12-20T14:37:31.643Z,2.52
2022-12-20T14:42:36.757Z,2.55
2022-12-20T14:47:48.929Z,2.70
2022-12-20T14:52:53.377Z,2.75
2022-12-20T14:57:57.538Z,2.68
2022-12-20T15:03:04.059Z,2.60
2022-12-20T15:08:17.041Z,2.58
2022-12-20T15:13:22.305Z,2.54
2022-12-20T15:18:26.107Z,2.70
2022-12-20T15:23:30.940Z,2.73
2022-12-20T15:28:34.141Z,2.60
2022-12-20T15:33:39.239Z,2.72
2022-12-20T15:44:08.411Z,2.71
2022-12-20T15:49:15.992Z,2.75
2022-12-20T15:54:27.405Z,2.81
2022-12-20T16:04:54.453Z,2.73
2022-12-20T16:09:58.750Z,2.69
2022-12-20T16:15:01.715Z,2.81
2022-12-20T16:20:05.491Z,2.83
2022-12-20T16:25:21.871Z,2.82
2022-12-20T16:30:25.587Z,2.84
2022-12-20T16:35:31.118Z,2.80
2022-12-20T16:40:35.455Z,2.85
2022-12-20T16:45:39.463Z,2.90
2022-12-20T16:50:43.549Z,2.87
2022-12-20T16:55:47.861Z,2.98
2022-12-20T17:00:51.172Z,2.87
2022-12-20T17:05:57.216Z,2.84
2022-12-20T17:11:01.749Z,2.83
2022-12-20T17:16:05.418Z,2.61
2022-12-20T17:21:23.008Z,2.54
2022-12-20T17:26:28.756Z,2.67
2022-12-20T17:31:36.239Z,2.76
2022-12-20T17:36:39.214Z,2.68
2022-12-20T17:41:44.280Z,2.67
2022-12-20T17:46:47.862Z,2.66
2022-12-20T17:51:52.006Z,2.60
2022-12-20T17:56:57.143Z,2.68
2022-12-20T18:02:00.291Z,2.60
2022-12-20T18:07:04.885Z,2.48
2022-12-20T18:12:09.617Z,2.63
2022-12-20T18:17:12.741Z,2.56
2022-12-20T18:22:16.355Z,2.42
2022-12-20T18:27:23.783Z,2.49
2022-12-20T18:32:31.526Z,2.63
2022-12-20T18:37:34.587Z,2.56
2022-12-20T18:42:38.847Z,2.60
2022-12-20T18:47:41.799Z,2.61
2022-12-20T18:52:47.198Z,2.58
2022-12-20T18:57:51.677Z,2.54
2022-12-20T19:02:58.892Z,2.46
2022-12-20T19:08:02.406Z,2.56
2022-12-20T19:13:06.800Z,2.32
2022-12-20T19:18:09.703Z,2.28
2022-12-20T19:23:12.640Z,2.22
2022-12-20T19:28:16.928Z,2.17
2022-12-20T19:33:19.874Z,2.22
2022-12-20T19:38:22.849Z,2.16
2022-12-20T19:43:27.204Z,2.03
2022-12-20T19:48:30.384Z,2.11
2022-12-20T19:53:33.483Z,2.01
2022-12-20T19:58:38.677Z,1.99
2022-12-20T20:03:41.739Z,2.19
2022-12-20T20:08:45.489Z,2.15
2022-12-20T20:13:49.955Z,2.19
2022-12-20T20:18:53.501Z,2.26
2022-12-20T20:23:56.775Z,2.23
2022-12-20T20:29:02.081Z,2.20
2022-12-20T20:34:05.045Z,2.23
2022-12-20T20:39:08.064Z,2.28
2022-12-20T20:44:13.751Z,2.12
2022-12-20T20:49:16.872Z,2.22
2022-12-20T20:54:19.866Z,2.34
2022-12-20T20:59:24.977Z,2.32
2022-12-20T21:04:27.897Z,2.43
2022-12-20T21:09:32.228Z,2.41
2022-12-20T21:15:20.111Z,2.36
2022-12-20T21:19:59.383Z,2.41
2022-12-20T21:25:02.357Z,2.43
2022-12-20T21:30:07.909Z,2.53
2022-12-20T21:35:11.174Z,2.55
2022-12-20T21:40:14.847Z,2.59
2022-12-20T21:45:19.173Z,2.48
2022-12-20T21:50:22.057Z,2.55
2022-12-20T21:55:24.992Z,2.50
2022-12-20T22:00:29.392Z,2.59
2022-12-20T22:05:33.137Z,2.54
2022-12-20T22:10:36.081Z,2.64
2022-12-20T22:15:41.265Z,2.53
2022-12-20T22:20:46.314Z,2.62
2022-12-20T22:25:49.439Z,2.59
2022-12-20T22:30:53.735Z,2.52
2022-12-20T22:36:00.178Z,2.60
2022-12-20T22:41:11.060Z,2.61
2022-12-20T22:46:16.577Z,2.63
2022-12-20T22:51:21.925Z,2.59
2022-12-20T22:56:24.880Z,2.52
2022-12-20T23:01:29.303Z,2.46
2022-12-20T23:06:32.220Z,2.46
2022-12-20T23:11:52.539Z,2.41
2022-12-20T23:16:56.858Z,2.55
2022-12-20T23:22:17.248Z,2.60
2022-12-20T23:27:20.146Z,2.50
2022-12-20T23:32:24.408Z,2.64
2022-12-20T23:37:29.067Z,2.63
2022-12-20T23:42:31.971Z,2.66
2022-12-20T23:47:36.295Z,2.60
2022-12-20T23:52:39.403Z,2.55
2022-12-20T23:57:42.322Z,2.42
